Time;durP1;ratioP1;P1;durP2;ratioP2;P2;SDS_P1;SDS_P2;PMS_P1;PMS_P2;Temp;Humidity;BMP_temperature;BMP_pressure;BME280_temperature;BME280_humidity;BME280_pressure;Samples;Min_cycle;Max_cycle;Signal;HPM_P1;HPM_P2
2023/06/23 00:01:45;;;;;;;2.30;2.10;;;17.60;99.90;;;;;;5057567;28;20396;-86
2023/06/23 00:04:11;;;;;;;1.85;1.42;;;17.60;99.90;;;;;;5075079;28;20380;-85
2023/06/23 00:06:36;;;;;;;1.83;1.73;;;17.60;99.90;;;;;;5074976;28;20391;-84
2023/06/23 00:09:07;;;;;;;2.17;1.92;;;17.60;99.90;;;;;;5056854;28;20754;-84
2023/06/23 00:11:33;;;;;;;3.00;2.07;;;17.60;99.90;;;;;;5058122;28;20407;-84
2023/06/23 00:13:58;;;;;;;2.13;2.00;;;18.60;99.90;;;;;;5075793;28;20375;-85
2023/06/23 00:16:24;;;;;;;2.92;2.70;;;17.60;99.90;;;;;;5099401;22;20435;-83
2023/06/23 00:18:49;;;;;;;3.60;2.80;;;17.50;99.90;;;;;;5076811;28;20901;-82
2023/06/23 00:21:15;;;;;;;2.90;2.55;;;17.60;99.90;;;;;;5074282;28;20371;-83
2023/06/23 00:23:41;;;;;;;3.70;3.00;;;17.60;99.90;;;;;;5075509;28;20387;-83
2023/06/23 00:26:07;;;;;;;3.10;2.67;;;17.60;99.90;;;;;;5071218;28;20414;-83
2023/06/23 00:28:33;;;;;;;2.80;2.60;;;17.60;99.90;;;;;;5073864;28;20391;-83
2023/06/23 00:30:59;;;;;;;2.45;2.25;;;17.30;99.90;;;;;;5073835;28;20402;-81
2023/06/23 00:33:24;;;;;;;2.83;2.27;;;17.60;99.90;;;;;;5075829;28;20380;-83
2023/06/23 00:35:50;;;;;;;2.70;2.50;;;17.60;99.90;;;;;;5077517;28;20414;-81
2023/06/23 00:38:15;;;;;;;3.90;3.22;;;17.60;99.90;;;;;;5082986;28;20451;-82
2023/06/23 00:40:41;;;;;;;3.80;3.50;;;17.60;99.90;;;;;;5080893;28;20392;-81
2023/06/23 00:43:07;;;;;;;3.60;3.08;;;17.60;99.90;;;;;;5082322;28;20463;-81
2023/06/23 00:45:33;;;;;;;4.30;2.83;;;17.60;99.90;;;;;;5077719;28;20379;-82
2023/06/23 00:48:03;;;;;;;3.22;2.92;;;17.60;99.90;;;;;;5077044;28;20395;-81
2023/06/23 00:50:30;;;;;;;3.33;2.72;;;17.50;99.90;;;;;;5074893;28;20461;-82
2023/06/23 00:52:55;;;;;;;3.13;2.83;;;17.60;99.90;;;;;;5076326;28;20468;-80
2023/06/23 00:55:26;;;;;;;3.20;3.00;;;17.60;99.90;;;;;;5074876;28;20859;-82
2023/06/23 00:57:54;;;;;;;3.40;3.10;;;17.60;99.90;;;;;;5074614;28;20484;-81
2023/06/23 01:00:20;;;;;;;3.80;3.40;;;17.60;99.90;;;;;;5076478;28;20387;-81
2023/06/23 01:02:50;;;;;;;4.05;3.65;;;17.60;99.90;;;;;;5075564;28;20458;-81
2023/06/23 01:05:37;;;;;;;3.80;3.50;;;17.60;99.90;;;;;;5075099;28;20386;-81
2023/06/23 01:08:32;;;;;;;4.65;4.15;;;17.50;99.90;;;;;;5076258;28;20376;-82
2023/06/23 01:11:06;;;;;;;5.10;3.47;;;17.50;99.90;;;;;;5075651;28;20421;-81
2023/06/23 01:13:34;;;;;;;4.40;4.00;;;17.50;99.90;;;;;;5054681;28;20389;-82
2023/06/23 01:16:15;;;;;;;4.90;4.00;;;17.40;99.90;;;;;;5054997;28;20386;-81
2023/06/23 01:18:57;;;;;;;4.95;4.55;;;17.50;99.90;;;;;;5053209;28;20878;-80
2023/06/23 01:21:51;;;;;;;4.80;4.38;;;17.60;99.90;;;;;;5061208;28;20400;-80
2023/06/23 01:24:22;;;;;;;5.30;4.80;;;17.60;99.90;;;;;;5053989;28;20400;-80
2023/06/23 01:27:19;;;;;;;6.25;4.50;;;17.60;99.90;;;;;;5051814;28;20385;-80
2023/06/23 01:29:47;;;;;;;5.30;4.80;;;17.50;99.90;;;;;;5054133;28;20408;-80
2023/06/23 01:32:20;;;;;;;5.28;4.78;;;17.60;99.90;;;;;;5053429;28;20411;-79
2023/06/23 01:34:54;;;;;;;5.32;4.85;;;17.60;99.90;;;;;;5052276;28;20386;-80
2023/06/23 01:37:25;;;;;;;4.68;4.28;;;17.60;99.90;;;;;;5071176;28;20907;-81
2023/06/23 01:39:54;;;;;;;5.50;5.00;;;17.60;99.90;;;;;;5073792;28;20388;-81
2023/06/23 01:42:25;;;;;;;5.40;4.90;;;17.60;99.90;;;;;;5073485;28;20804;-80
2023/06/23 01:44:57;;;;;;;4.95;4.55;;;17.60;99.90;;;;;;5073003;28;20390;-81
2023/06/23 01:47:28;;;;;;;5.50;5.00;;;17.60;99.90;;;;;;5072088;28;20391;-81
2023/06/23 01:49:58;;;;;;;4.57;4.17;;;17.60;99.90;;;;;;5075558;28;20491;-81
2023/06/23 01:52:24;;;;;;;5.20;4.30;;;17.60;99.90;;;;;;5073671;28;20376;-82
2023/06/23 01:54:52;;;;;;;4.40;4.00;;;17.50;99.90;;;;;;5075442;28;20469;-82
2023/06/23 01:57:18;;;;;;;5.47;5.00;;;17.50;99.90;;;;;;5074535;28;20383;-81
2023/06/23 01:59:46;;;;;;;6.00;4.40;;;17.50;99.90;;;;;;5073127;28;20384;-81
2023/06/23 02:02:15;;;;;;;4.60;4.30;;;17.50;99.90;;;;;;5072438;28;20394;-80
2023/06/23 02:04:43;;;;;;;4.60;4.20;;;17.40;99.90;;;;;;5073792;28;20877;-82
2023/06/23 02:07:12;;;;;;;4.70;4.30;;;17.40;99.90;;;;;;5070630;28;20392;-81
2023/06/23 02:09:41;;;;;;;5.72;5.22;;;17.40;99.90;;;;;;5071496;28;20466;-81
2023/06/23 02:12:08;;;;;;;6.45;5.15;;;17.30;99.90;;;;;;5061399;28;20389;-80
2023/06/23 02:14:37;;;;;;;5.80;5.20;;;17.30;99.90;;;;;;5050720;28;20432;-81
2023/06/23 02:17:05;;;;;;;6.30;5.70;;;17.30;99.90;;;;;;5051023;28;20436;-80
2023/06/23 02:19:32;;;;;;;6.10;5.60;;;17.30;99.90;;;;;;5057906;28;20751;-81
2023/06/23 02:21:58;;;;;;;7.20;6.50;;;17.30;99.90;;;;;;5053360;28;20393;-82
2023/06/23 02:24:25;;;;;;;7.15;5.90;;;17.20;99.90;;;;;;5054129;28;20468;-81
2023/06/23 02:26:52;;;;;;;7.07;6.47;;;17.20;99.90;;;;;;5052823;28;20814;-82
2023/06/23 02:29:20;;;;;;;7.20;6.20;;;17.20;99.90;;;;;;5054428;28;20400;-81
2023/06/23 02:31:46;;;;;;;7.90;7.20;;;17.30;99.90;;;;;;5054241;28;20409;-81
2023/06/23 02:34:12;;;;;;;7.20;6.60;;;17.30;99.90;;;;;;5053011;28;20386;-80
2023/06/23 02:36:46;;;;;;;7.40;6.70;;;17.30;99.90;;;;;;5063244;28;20471;-80
2023/06/23 02:39:15;;;;;;;8.10;7.40;;;17.30;99.90;;;;;;5072015;28;20375;-79
2023/06/23 02:41:43;;;;;;;8.43;7.63;;;17.30;99.90;;;;;;5072075;28;20388;-79
2023/06/23 02:44:17;;;;;;;8.32;7.53;;;17.30;99.90;;;;;;5071949;28;20423;-80
2023/06/23 02:46:44;;;;;;;9.23;8.43;;;17.30;99.90;;;;;;5069856;28;20388;-79
2023/06/23 02:49:17;;;;;;;8.57;7.87;;;17.30;99.90;;;;;;5072113;28;20478;-79
2023/06/23 02:51:46;;;;;;;9.45;7.70;;;17.30;99.90;;;;;;5071271;28;20403;-81
2023/06/23 02:54:17;;;;;;;7.90;7.10;;;17.30;99.90;;;;;;5071538;28;20412;-81
2023/06/23 02:56:43;;;;;;;8.63;7.82;;;17.30;99.90;;;;;;5072146;28;20384;-80
2023/06/23 02:59:15;;;;;;;8.60;7.82;;;17.30;99.90;;;;;;5072865;28;20882;-81
2023/06/23 03:01:44;;;;;;;8.43;7.55;;;17.30;99.90;;;;;;5072565;28;20396;-80
2023/06/23 03:04:12;;;;;;;8.60;7.90;;;17.30;99.90;;;;;;5074629;28;20391;-81
2023/06/23 03:06:38;;;;;;;8.30;7.50;;;17.30;99.90;;;;;;5071207;28;20726;-80
2023/06/23 03:09:04;;;;;;;8.77;7.97;;;17.30;99.90;;;;;;5073384;28;20453;-80
2023/06/23 03:11:32;;;;;;;9.30;8.50;;;17.30;99.90;;;;;;5066647;28;20402;-80
2023/06/23 03:13:57;;;;;;;8.70;7.90;;;17.30;99.90;;;;;;5050873;28;20389;-80
2023/06/23 03:16:44;;;;;;;8.88;7.70;;;17.20;99.90;;;;;;5051489;28;20479;-80
2023/06/23 03:19:41;;;;;;;9.00;8.20;;;17.20;99.90;;;;;;5052160;28;20794;-80
2023/06/23 03:22:21;;;;;;;9.18;8.27;;;17.30;99.90;;;;;;5050854;28;20409;-79
2023/06/23 03:24:53;;;;;;;9.00;8.20;;;17.30;99.90;;;;;;5053367;28;20762;-80
2023/06/23 03:27:21;;;;;;;8.52;7.63;;;17.30;99.90;;;;;;5056951;28;20450;-82
2023/06/23 03:29:53;;;;;;;9.13;8.32;;;17.30;99.90;;;;;;5059915;28;20373;-81
2023/06/23 03:32:25;;;;;;;9.07;8.27;;;17.30;99.90;;;;;;5058095;28;20397;-82
2023/06/23 03:35:03;;;;;;;8.70;7.90;;;17.30;99.90;;;;;;5059229;28;20884;-82
2023/06/23 03:37:31;;;;;;;7.88;7.18;;;17.40;99.90;;;;;;5077386;28;20482;-82
2023/06/23 03:40:01;;;;;;;8.93;8.13;;;17.40;99.90;;;;;;5080154;28;20384;-82
2023/06/23 03:42:27;;;;;;;8.70;7.90;;;17.40;99.90;;;;;;5091008;28;20390;-81
2023/06/23 03:44:56;;;;;;;9.20;8.45;;;17.40;99.90;;;;;;5084807;28;20396;-82
2023/06/23 03:47:24;;;;;;;9.80;8.98;;;17.40;99.90;;;;;;5080980;28;20386;-82
2023/06/23 03:49:55;;;;;;;10.50;9.40;;;17.40;99.90;;;;;;5089669;28;20492;-80
2023/06/23 03:52:23;;;;;;;10.80;9.70;;;17.40;99.90;;;;;;5094103;28;20398;-81
2023/06/23 03:54:51;;;;;;;10.73;9.70;;;17.50;99.90;;;;;;5083759;28;20379;-82
2023/06/23 03:57:20;;;;;;;11.82;10.20;;;17.50;99.90;;;;;;5089623;28;20371;-80
2023/06/23 03:59:49;;;;;;;10.60;9.50;;;17.40;99.90;;;;;;5083124;28;20376;-81
2023/06/23 04:02:17;;;;;;;11.00;9.90;;;17.40;99.90;;;;;;5079213;28;20376;-82
2023/06/23 04:04:44;;;;;;;12.77;9.80;;;17.50;99.90;;;;;;5077426;28;20380;-81
2023/06/23 04:07:11;;;;;;;10.50;9.65;;;17.50;99.90;;;;;;5075421;28;20385;-81
2023/06/23 04:09:40;;;;;;;12.10;10.88;;;17.40;99.90;;;;;;5076896;28;20386;-81
2023/06/23 04:12:10;;;;;;;11.32;10.30;;;17.50;99.90;;;;;;5066193;28;20420;-81
2023/06/23 04:14:38;;;;;;;10.98;9.98;;;17.40;99.90;;;;;;5057114;28;20420;-81
2023/06/23 04:17:07;;;;;;;9.65;8.80;;;17.40;99.90;;;;;;5056397;28;20405;-81
2023/06/23 04:19:35;;;;;;;10.52;9.52;;;17.40;99.90;;;;;;5054959;28;20417;-81
2023/06/23 04:22:04;;;;;;;11.23;10.07;;;17.40;99.90;;;;;;5056118;28;20392;-81
2023/06/23 04:24:31;;;;;;;11.55;10.38;;;17.50;99.90;;;;;;5055900;28;20382;-80
2023/06/23 04:26:58;;;;;;;12.05;10.95;;;17.40;99.90;;;;;;5055559;28;20770;-81
2023/06/23 04:29:26;;;;;;;10.47;9.47;;;17.50;99.90;;;;;;5057681;28;20445;-81
2023/06/23 04:31:54;;;;;;;11.20;10.13;;;17.40;99.90;;;;;;5060270;28;20397;-82
2023/06/23 04:34:20;;;;;;;10.55;9.65;;;17.40;99.90;;;;;;5058161;28;20378;-82
2023/06/23 04:36:55;;;;;;;10.30;9.40;;;17.50;99.90;;;;;;5070198;28;20376;-82
2023/06/23 04:39:29;;;;;;;10.20;9.30;;;17.50;99.90;;;;;;5078712;28;20380;-81
2023/06/23 04:41:58;;;;;;;10.85;9.75;;;17.50;99.90;;;;;;5076862;28;20384;-82
2023/06/23 04:44:28;;;;;;;10.60;9.70;;;17.50;99.90;;;;;;5077582;28;20417;-82
2023/06/23 04:46:57;;;;;;;10.88;9.88;;;17.60;99.90;;;;;;5075331;28;21059;-82
2023/06/23 04:49:25;;;;;;;10.85;9.95;;;17.50;99.90;;;;;;5086406;28;20394;-81
2023/06/23 04:51:53;;;;;;;11.95;10.93;;;17.60;99.90;;;;;;5094114;28;20380;-81
2023/06/23 04:54:25;;;;;;;13.25;11.20;;;17.60;99.90;;;;;;5087043;28;20384;-82
2023/06/23 04:56:59;;;;;;;11.90;10.80;;;17.50;99.90;;;;;;5079624;28;20379;-82
2023/06/23 04:59:27;;;;;;;11.80;10.80;;;17.60;99.90;;;;;;5076045;28;20384;-81
2023/06/23 05:01:53;;;;;;;11.30;10.20;;;17.60;99.90;;;;;;5077691;28;20391;-82
2023/06/23 05:04:19;;;;;;;12.40;11.27;;;17.60;99.90;;;;;;5078277;28;20388;-82
2023/06/23 05:06:46;;;;;;;12.20;11.00;;;17.70;99.90;;;;;;5076999;28;20383;-81
2023/06/23 05:09:15;;;;;;;12.23;11.02;;;17.70;99.90;;;;;;5079343;28;20391;-82
2023/06/23 05:11:43;;;;;;;13.10;11.70;;;17.40;99.90;;;;;;5069863;28;20468;-81
2023/06/23 05:14:09;;;;;;;11.32;10.27;;;17.80;99.90;;;;;;5054027;28;20419;-81
2023/06/23 05:16:37;;;;;;;11.27;10.27;;;17.80;99.90;;;;;;5053846;28;20937;-81
2023/06/23 05:19:06;;;;;;;13.80;12.60;;;17.80;99.90;;;;;;5055613;28;20404;-81
2023/06/23 05:21:33;;;;;;;12.68;11.57;;;17.80;99.90;;;;;;5054853;28;20397;-80
2023/06/23 05:24:00;;;;;;;13.57;12.20;;;17.80;99.90;;;;;;5055305;28;20403;-82
2023/06/23 05:26:33;;;;;;;13.48;12.27;;;17.90;99.90;;;;;;5053192;28;20421;-80
2023/06/23 05:29:03;;;;;;;12.90;11.70;;;17.90;99.90;;;;;;5053670;28;20397;-81
2023/06/23 05:31:31;;;;;;;13.30;12.00;;;17.90;99.90;;;;;;5053259;28;20967;-81
2023/06/23 05:33:57;;;;;;;13.60;12.20;;;18.00;99.90;;;;;;5054752;28;20748;-81
2023/06/23 05:36:24;;;;;;;13.10;11.80;;;18.00;99.90;;;;;;5063284;28;20383;-79
2023/06/23 05:38:52;;;;;;;13.25;12.05;;;18.10;99.90;;;;;;5073420;28;20383;-81
2023/06/23 05:41:18;;;;;;;12.82;11.73;;;18.10;99.90;;;;;;5073511;28;20413;-81
2023/06/23 05:43:43;;;;;;;13.23;12.02;;;18.20;99.90;;;;;;5073986;28;20458;-78
2023/06/23 05:46:14;;;;;;;14.15;12.70;;;18.20;99.90;;;;;;5073351;28;20388;-78
2023/06/23 05:48:45;;;;;;;13.70;12.52;;;18.30;99.90;;;;;;5074041;28;20399;-79
2023/06/23 05:51:16;;;;;;;14.30;13.00;;;18.40;99.90;;;;;;5073137;28;20404;-79
2023/06/23 05:53:43;;;;;;;14.00;12.70;;;18.40;99.90;;;;;;5073436;28;20383;-79
2023/06/23 05:56:22;;;;;;;13.73;12.43;;;18.40;99.90;;;;;;5071029;28;20404;-79
2023/06/23 05:58:55;;;;;;;15.10;13.40;;;18.40;99.90;;;;;;5073143;28;20391;-79
2023/06/23 06:01:23;;;;;;;14.52;13.13;;;18.30;99.90;;;;;;5072041;28;20441;-79
2023/06/23 06:04:00;;;;;;;14.97;13.47;;;18.40;99.90;;;;;;5072735;28;20406;-79
2023/06/23 06:06:28;;;;;;;15.75;14.35;;;18.50;99.90;;;;;;5071272;28;20384;-79
2023/06/23 06:08:57;;;;;;;16.88;15.27;;;18.50;99.90;;;;;;5073148;28;20380;-79
2023/06/23 06:11:23;;;;;;;18.63;16.83;;;18.40;99.90;;;;;;5067418;28;20401;-79
2023/06/23 06:13:51;;;;;;;18.20;16.60;;;18.40;99.90;;;;;;5053070;28;20870;-79
2023/06/23 06:16:18;;;;;;;18.83;17.13;;;18.30;99.90;;;;;;5052386;28;20733;-79
2023/06/23 06:18:45;;;;;;;18.75;16.95;;;18.30;99.90;;;;;;5053518;28;20385;-79
2023/06/23 06:21:11;;;;;;;19.08;17.17;;;18.20;99.90;;;;;;5052947;28;20476;-80
2023/06/23 06:23:38;;;;;;;19.47;17.57;;;18.20;99.90;;;;;;5052225;28;20412;-79
2023/06/23 06:26:05;;;;;;;20.88;18.88;;;18.20;99.90;;;;;;5051607;28;20396;-79
2023/06/23 06:28:33;;;;;;;19.02;17.13;;;18.20;99.90;;;;;;5052297;28;20421;-80
2023/06/23 06:31:00;;;;;;;19.15;17.45;;;17.90;99.90;;;;;;5054522;28;20466;-79
2023/06/23 06:33:27;;;;;;;19.70;17.70;;;18.30;99.90;;;;;;5052219;28;20382;-80
2023/06/23 06:35:57;;;;;;;18.47;16.67;;;18.30;99.90;;;;;;5058887;28;20897;-80
2023/06/23 06:38:23;;;;;;;18.25;16.42;;;18.40;99.90;;;;;;5073432;28;20388;-81
2023/06/23 06:40:53;;;;;;;17.58;15.85;;;18.20;99.90;;;;;;5072359;28;20388;-80
2023/06/23 06:43:19;;;;;;;18.00;16.30;;;18.30;99.90;;;;;;5071818;28;20388;-79
2023/06/23 06:45:45;;;;;;;17.37;15.80;;;18.30;99.90;;;;;;5072759;28;20473;-81
2023/06/23 06:48:12;;;;;;;17.60;15.70;;;18.20;99.90;;;;;;5073776;28;20395;-80
2023/06/23 06:50:38;;;;;;;16.40;14.70;;;18.40;99.90;;;;;;5073506;28;20440;-80
2023/06/23 06:53:04;;;;;;;16.00;14.50;;;18.50;99.90;;;;;;5072826;28;20432;-79
2023/06/23 06:55:31;;;;;;;16.10;14.45;;;18.60;99.90;;;;;;5072495;28;20376;-79
2023/06/23 06:57:56;;;;;;;16.50;14.13;;;18.70;99.90;;;;;;5073318;28;20383;-79
2023/06/23 07:00:22;;;;;;;14.70;13.40;;;18.60;99.90;;;;;;5074827;28;20745;-80
2023/06/23 07:02:49;;;;;;;15.52;12.43;;;18.70;99.90;;;;;;5076831;28;20406;-79
2023/06/23 07:05:16;;;;;;;13.77;12.37;;;18.70;99.90;;;;;;5077217;28;20865;-79
2023/06/23 07:07:42;;;;;;;13.32;12.10;;;18.70;99.90;;;;;;5077247;28;20396;-80
2023/06/23 07:10:08;;;;;;;14.23;12.82;;;18.60;99.90;;;;;;5077097;28;20392;-80
2023/06/23 07:12:34;;;;;;;12.55;11.25;;;18.60;99.90;;;;;;5063526;28;20393;-80
2023/06/23 07:14:59;;;;;;;11.97;10.80;;;18.70;99.90;;;;;;5056778;28;20417;-80
2023/06/23 07:17:25;;;;;;;12.43;10.80;;;18.80;99.90;;;;;;5055027;28;20401;-80
2023/06/23 07:19:50;;;;;;;11.57;9.93;;;18.90;99.90;;;;;;5055134;28;20387;-80
2023/06/23 07:22:18;;;;;;;11.63;10.50;;;19.10;99.90;;;;;;5056393;28;20876;-81
2023/06/23 07:24:43;;;;;;;12.55;11.00;;;18.90;99.90;;;;;;5054444;28;20464;-83
2023/06/23 07:27:09;;;;;;;12.43;11.10;;;18.90;99.90;;;;;;5055752;28;20417;-81
2023/06/23 07:29:35;;;;;;;11.03;9.93;;;18.90;99.90;;;;;;5058078;28;20871;-82
2023/06/23 07:32:01;;;;;;;12.30;11.10;;;19.00;99.90;;;;;;5057659;28;20408;-81
2023/06/23 07:34:28;;;;;;;12.10;10.90;;;19.00;99.90;;;;;;5054564;28;20401;-78
2023/06/23 07:36:54;;;;;;;10.60;9.70;;;19.20;99.90;;;;;;5067434;28;20446;-79
2023/06/23 07:39:19;;;;;;;12.20;10.30;;;19.30;99.90;;;;;;5075301;28;20441;-79
2023/06/23 07:41:45;;;;;;;12.32;9.85;;;19.40;99.90;;;;;;5074397;28;20388;-80
2023/06/23 07:44:11;;;;;;;10.57;9.67;;;19.40;99.90;;;;;;5075941;28;20392;-79
2023/06/23 07:46:36;;;;;;;11.00;10.00;;;19.60;99.90;;;;;;5075234;28;20396;-80
2023/06/23 07:49:02;;;;;;;10.93;9.93;;;19.60;99.90;;;;;;5078762;28;20388;-80
2023/06/23 07:51:28;;;;;;;10.07;9.17;;;19.40;99.90;;;;;;5077250;28;20781;-80
2023/06/23 07:53:53;;;;;;;12.10;11.00;;;19.50;99.90;;;;;;5075718;28;20941;-79
2023/06/23 07:56:19;;;;;;;12.00;10.80;;;19.60;99.90;;;;;;5073957;28;20380;-80
2023/06/23 07:58:44;;;;;;;11.00;10.10;;;19.40;99.90;;;;;;5074154;28;20446;-80
2023/06/23 08:01:12;;;;;;;10.87;9.80;;;19.20;99.90;;;;;;5080721;28;20434;-79
2023/06/23 08:03:37;;;;;;;10.52;9.60;;;19.10;99.90;;;;;;5086788;28;20459;-80
2023/06/23 08:06:03;;;;;;;11.30;10.20;;;19.20;99.90;;;;;;5073105;28;20427;-80
2023/06/23 08:08:28;;;;;;;11.23;10.03;;;19.10;99.90;;;;;;5075569;28;20390;-80
2023/06/23 08:10:54;;;;;;;10.15;9.25;;;19.20;99.90;;;;;;5074383;28;20426;-80
2023/06/23 08:13:19;;;;;;;11.00;9.80;;;19.20;99.90;;;;;;5055280;28;20472;-81
2023/06/23 08:15:46;;;;;;;10.85;9.75;;;19.20;99.90;;;;;;5066035;28;20445;-80
2023/06/23 08:18:12;;;;;;;9.70;8.80;;;19.30;99.90;;;;;;5070956;28;20381;-80
2023/06/23 08:20:38;;;;;;;8.07;7.43;;;19.50;99.90;;;;;;5069772;28;20909;-81
2023/06/23 08:23:03;;;;;;;8.20;7.50;;;19.70;99.90;;;;;;5055228;28;20483;-81
2023/06/23 08:25:29;;;;;;;8.00;7.30;;;19.80;99.90;;;;;;5055780;28;20392;-81
2023/06/23 08:27:54;;;;;;;7.40;6.70;;;19.80;99.90;;;;;;5056013;28;20511;-81
2023/06/23 08:30:28;;;;;;;7.30;6.60;;;20.00;99.90;;;;;;5055907;28;20405;-81
2023/06/23 08:32:54;;;;;;;7.18;6.47;;;20.00;99.90;;;;;;5055083;28;20386;-82
2023/06/23 08:35:20;;;;;;;6.50;5.90;;;20.10;99.90;;;;;;5058091;28;20399;-82
2023/06/23 08:37:45;;;;;;;6.55;5.95;;;20.10;99.90;;;;;;5076103;28;20394;-83
2023/06/23 08:40:11;;;;;;;6.80;6.10;;;20.10;99.90;;;;;;5077731;28;20452;-80
2023/06/23 08:42:37;;;;;;;6.47;5.88;;;20.00;99.90;;;;;;5094572;28;20391;-82
2023/06/23 08:45:03;;;;;;;7.00;6.40;;;21.40;99.90;;;;;;5082143;28;20375;-82
2023/06/23 08:47:30;;;;;;;6.60;6.00;;;20.00;99.90;;;;;;5080847;28;20426;-83
2023/06/23 08:49:57;;;;;;;6.57;5.97;;;19.70;99.90;;;;;;5080194;28;20388;-83
2023/06/23 08:52:24;;;;;;;7.05;6.45;;;20.20;99.90;;;;;;5077750;28;20384;-83
2023/06/23 08:54:49;;;;;;;6.32;5.60;;;20.30;99.90;;;;;;5078629;28;20383;-83
2023/06/23 08:57:16;;;;;;;6.72;6.13;;;;;;;;;;5076110;28;20376;-81
2023/06/23 08:59:41;;;;;;;7.30;6.70;;;20.40;99.90;;;;;;5075288;28;20380;-82
2023/06/23 09:02:07;;;;;;;6.45;5.85;;;20.30;98.50;;;;;;5076368;28;20475;-82
2023/06/23 09:04:32;;;;;;;7.27;5.73;;;20.50;97.40;;;;;;5082755;28;20402;-82
2023/06/23 09:06:58;;;;;;;6.80;5.90;;;20.50;37.10;;;;;;5079058;28;20383;-82
2023/06/23 09:09:25;;;;;;;7.00;6.22;;;20.50;56.00;;;;;;5077232;28;20398;-82
2023/06/23 09:11:51;;;;;;;6.10;5.50;;;20.80;36.90;;;;;;5067988;28;20424;-82
2023/06/23 09:14:18;;;;;;;6.78;6.10;;;20.90;22.10;;;;;;5056547;28;20381;-82
2023/06/23 09:16:44;;;;;;;7.05;6.38;;;20.80;86.20;;;;;;5054047;28;20389;-81
2023/06/23 09:19:11;;;;;;;8.20;6.60;;;20.80;93.90;;;;;;5054731;28;20919;-82
2023/06/23 09:21:38;;;;;;;6.55;5.85;;;20.70;99.90;;;;;;5054065;28;20855;-82
2023/06/23 09:24:05;;;;;;;6.60;5.90;;;21.00;67.00;;;;;;5054654;28;20386;-82
2023/06/23 09:26:51;;;;;;;6.78;5.25;;;21.30;20.70;;;;;;5053777;28;20790;-82
2023/06/23 09:29:26;;;;;;;5.10;4.60;;;21.20;1.00;;;;;;5053426;28;20401;-81
2023/06/23 09:31:52;;;;;;;5.50;5.00;;;20.70;1.00;;;;;;5055024;28;20451;-82
2023/06/23 09:34:33;;;;;;;6.03;5.47;;;21.20;1.00;;;;;;5055535;28;20458;-81
2023/06/23 09:37:33;;;;;;;7.23;6.50;;;21.40;1.00;;;;;;5070401;28;20380;-81
2023/06/23 09:39:59;;;;;;;6.68;5.55;;;21.40;1.00;;;;;;5075484;28;20395;-82
2023/06/23 09:42:24;;;;;;;7.00;5.63;;;21.60;1.00;;;;;;5077478;28;20388;-81
2023/06/23 09:44:50;;;;;;;5.60;4.97;;;21.90;1.00;;;;;;5074758;28;20870;-80
2023/06/23 09:47:18;;;;;;;7.18;5.82;;;21.90;1.00;;;;;;5072806;28;20384;-80
2023/06/23 09:49:49;;;;;;;6.20;5.60;;;21.80;1.00;;;;;;5075499;28;20750;-81
2023/06/23 09:52:25;;;;;;;6.20;5.60;;;21.70;1.00;;;;;;5074079;28;20426;-82
2023/06/23 09:54:51;;;;;;;6.95;5.63;;;21.60;1.00;;;;;;5075011;28;20412;-82
2023/06/23 09:57:18;;;;;;;6.00;5.50;;;21.40;5.30;;;;;;5071935;28;20890;-82
2023/06/23 09:59:45;;;;;;;6.13;5.57;;;21.40;1.00;;;;;;5074020;28;20380;-82
2023/06/23 10:02:30;;;;;;;5.70;5.05;;;21.60;1.00;;;;;;5073000;28;20387;-82
2023/06/23 10:05:05;;;;;;;6.97;5.70;;;21.80;1.00;;;;;;5073726;28;20786;-82
2023/06/23 10:07:31;;;;;;;6.20;5.40;;;21.70;1.00;;;;;;5073454;28;20392;-82
2023/06/23 10:09:59;;;;;;;6.10;5.50;;;21.20;1.00;;;;;;5075003;28;20388;-82
2023/06/23 10:12:27;;;;;;;5.63;5.13;;;22.00;1.00;;;;;;5061793;28;20737;-81
2023/06/23 10:14:56;;;;;;;5.35;4.90;;;22.00;1.00;;;;;;5054212;28;20393;-81
2023/06/23 10:17:21;;;;;;;5.70;5.10;;;22.40;1.00;;;;;;5053266;28;20406;-80
2023/06/23 10:19:49;;;;;;;5.70;5.20;;;22.30;1.00;;;;;;5053998;28;20443;-82
2023/06/23 10:22:18;;;;;;;5.77;5.27;;;22.40;1.00;;;;;;5052489;28;20381;-81
2023/06/23 10:24:47;;;;;;;6.00;5.00;;;22.20;1.00;;;;;;5053542;28;20787;-80
2023/06/23 10:27:20;;;;;;;5.68;5.18;;;22.00;1.00;;;;;;5053310;28;20381;-82
2023/06/23 10:29:54;;;;;;;5.97;5.38;;;21.50;1.00;;;;;;5052578;28;20428;-82
2023/06/23 10:32:27;;;;;;;6.15;5.38;;;22.00;1.00;;;;;;5054368;28;20397;-82
2023/06/23 10:34:56;;;;;;;5.68;5.15;;;22.30;1.00;;;;;;5053709;28;20382;-82
2023/06/23 10:37:23;;;;;;;6.05;5.40;;;22.60;1.00;;;;;;5071017;28;20486;-82
2023/06/23 10:40:01;;;;;;;5.82;5.15;;;22.70;1.00;;;;;;5073925;28;20402;-82
2023/06/23 10:42:29;;;;;;;5.88;5.38;;;22.60;1.00;;;;;;5074331;28;20394;-81
2023/06/23 10:44:55;;;;;;;5.20;4.80;;;22.70;1.00;;;;;;5073059;28;20387;-82
2023/06/23 10:47:22;;;;;;;6.10;4.75;;;22.70;1.00;;;;;;5073803;28;20392;-81
2023/06/23 10:49:48;;;;;;;5.20;4.10;;;23.20;1.00;;;;;;5073700;28;20929;-82
2023/06/23 10:52:14;;;;;;;5.18;4.78;;;23.20;1.00;;;;;;5072110;28;20403;-81
2023/06/23 10:54:42;;;;;;;5.63;5.22;;;23.20;1.00;;;;;;5073531;28;20873;-82
2023/06/23 10:57:13;;;;;;;5.20;4.70;;;23.30;1.00;;;;;;5085102;28;20389;-82
2023/06/23 10:59:43;;;;;;;4.88;4.47;;;23.60;1.00;;;;;;5075220;28;20462;-82
2023/06/23 11:02:19;;;;;;;5.30;4.80;;;23.90;1.00;;;;;;5075576;28;20379;-81
2023/06/23 11:04:56;;;;;;;5.40;4.60;;;23.80;1.00;;;;;;5075106;28;20452;-82
2023/06/23 11:07:23;;;;;;;5.47;4.17;;;23.10;1.00;;;;;;5075454;28;20391;-83
2023/06/23 11:09:57;;;;;;;4.45;3.83;;;23.50;1.00;;;;;;5074779;28;20389;-82
2023/06/23 11:12:30;;;;;;;4.95;4.45;;;23.60;1.00;;;;;;5062357;28;20539;-82
2023/06/23 11:15:20;;;;;;;4.47;4.00;;;23.90;1.00;;;;;;5052940;28;20385;-82
2023/06/23 11:17:47;;;;;;;4.80;4.40;;;23.90;1.00;;;;;;5054131;28;20434;-82
2023/06/23 11:20:30;;;;;;;4.10;3.80;;;23.90;1.00;;;;;;5054758;28;20386;-82
2023/06/23 11:23:05;;;;;;;5.25;4.30;;;23.70;1.00;;;;;;5054337;28;20382;-82
2023/06/23 11:25:41;;;;;;;4.30;3.90;;;24.20;1.00;;;;;;5054262;28;20370;-82
2023/06/23 11:28:28;;;;;;;4.82;4.18;;;24.00;1.00;;;;;;5053288;28;20393;-82
2023/06/23 11:31:06;;;;;;;5.18;4.68;;;23.60;1.00;;;;;;5040552;28;20409;-82
2023/06/23 11:33:39;;;;;;;4.20;3.90;;;23.90;1.00;;;;;;5054907;28;20392;-81
2023/06/23 11:36:10;;;;;;;5.53;4.55;;;23.80;1.00;;;;;;5062185;28;20789;-82
2023/06/23 11:38:37;;;;;;;4.57;4.18;;;24.20;1.00;;;;;;5074096;28;20722;-82
2023/06/23 11:41:03;;;;;;;4.83;4.43;;;24.00;1.00;;;;;;5064199;28;20437;-81
2023/06/23 11:43:38;;;;;;;5.40;4.90;;;23.60;1.00;;;;;;5065180;28;20495;-82
2023/06/23 11:46:08;;;;;;;5.95;4.35;;;23.60;1.00;;;;;;5062127;28;20416;-82
2023/06/23 11:48:36;;;;;;;4.85;4.35;;;24.60;1.00;;;;;;5067179;28;20453;-83
2023/06/23 11:51:03;;;;;;;4.40;4.00;;;26.00;1.00;;;;;;5058798;28;20397;-82
2023/06/23 11:53:29;;;;;;;5.45;4.20;;;25.80;1.00;;;;;;5058928;28;20405;-81
2023/06/23 11:55:55;;;;;;;4.70;4.20;;;25.10;1.00;;;;;;5058405;28;20400;-83
2023/06/23 11:58:21;;;;;;;4.55;4.15;;;24.60;1.00;;;;;;5058018;28;20392;-83
2023/06/23 12:00:46;;;;;;;4.88;4.38;;;24.10;1.00;;;;;;5058495;28;20393;-82
2023/06/23 12:03:13;;;;;;;3.97;3.53;;;23.90;1.00;;;;;;5076378;28;20388;-83
2023/06/23 12:05:41;;;;;;;4.30;3.90;;;24.00;1.00;;;;;;5077440;28;20408;-82
2023/06/23 12:08:07;;;;;;;4.50;4.10;;;24.20;1.00;;;;;;5077577;28;20774;-82
2023/06/23 12:10:40;;;;;;;4.40;4.00;;;24.40;1.00;;;;;;5066730;28;20409;-83
2023/06/23 12:13:13;;;;;;;4.63;4.22;;;24.20;1.00;;;;;;5067178;28;20397;-83
2023/06/23 12:15:40;;;;;;;4.47;4.07;;;24.40;1.00;;;;;;5063356;28;20449;-82
2023/06/23 12:18:09;;;;;;;4.23;3.83;;;24.10;1.00;;;;;;5108590;22;20430;-86
2023/06/23 12:20:40;;;;;;;4.50;4.10;;;24.10;1.00;;;;;;5112755;28;20400;-85
2023/06/23 12:23:10;;;;;;;4.87;4.40;;;23.80;1.00;;;;;;5097918;28;20391;-85
2023/06/23 12:25:43;;;;;;;4.40;4.00;;;23.70;1.00;;;;;;5115115;28;20488;-85
2023/06/23 12:28:14;;;;;;;4.22;3.80;;;23.70;1.00;;;;;;5106833;28;20435;-85
2023/06/23 12:30:45;;;;;;;4.10;3.70;;;25.80;1.00;;;;;;5076100;28;20405;-84
2023/06/23 12:33:29;;;;;;;4.00;3.60;;;26.30;1.00;;;;;;5077405;28;20410;-86
2023/06/23 12:35:58;;;;;;;4.10;3.35;;;26.70;1.00;;;;;;5097196;28;20419;-84
2023/06/23 12:38:24;;;;;;;4.60;4.20;;;25.90;1.00;;;;;;5064658;28;20413;-87
2023/06/23 12:40:51;;;;;;;4.28;3.88;;;26.20;1.00;;;;;;5086871;28;20386;-86
2023/06/23 12:43:18;;;;;;;3.65;3.35;;;27.60;1.00;;;;;;5086758;28;20390;-85
2023/06/23 12:45:46;;;;;;;3.88;3.13;;;27.70;1.00;;;;;;5086074;28;20436;-85
2023/06/23 12:48:12;;;;;;;3.83;3.40;;;26.80;1.00;;;;;;5099920;28;20391;-86
2023/06/23 12:50:41;;;;;;;3.80;3.50;;;25.50;1.00;;;;;;5081712;28;20424;-85
2023/06/23 12:53:07;;;;;;;3.60;3.30;;;26.40;1.00;;;;;;5084247;28;20374;-82